Time;durP1;ratioP1;P1;durP2;ratioP2;P2;SDS_P1;SDS_P2;PMS_P1;PMS_P2;Temp;Humidity;BMP_temperature;BMP_pressure;BME280_temperature;BME280_humidity;BME280_pressure;Samples;Min_cycle;Max_cycle;Signal;HPM_P1;HPM_P2
2023/12/01 00:00:54;;;;;;;129.10;60.20;;;;;;;-2.10;92.84;98984.15;108946;1267;25445;-84
2023/12/01 00:03:52;;;;;;;127.90;62.00;;;;;;;-2.10;92.92;98986.73;108799;1260;25346;-84
2023/12/01 00:06:45;;;;;;;139.90;62.60;;;;;;;-2.09;92.92;98981.32;108793;1267;22548;-84
2023/12/01 00:10:16;;;;;;;137.90;60.60;;;;;;;-2.08;92.83;98993.17;108821;1268;22514;-84
2023/12/01 00:13:29;;;;;;;130.30;58.50;;;;;;;-2.08;92.98;98992.70;108808;1269;22949;-83
2023/12/01 00:17:21;;;;;;;131.20;59.30;;;;;;;-2.09;92.99;99003.28;108741;1269;22870;-83
2023/12/01 00:20:55;;;;;;;127.20;56.20;;;;;;;-2.12;93.11;98991.70;108807;1267;23343;-85
2023/12/01 00:24:07;;;;;;;131.10;60.30;;;;;;;-2.10;93.40;98997.59;108882;1267;22686;-84
2023/12/01 00:27:21;;;;;;;130.10;59.30;;;;;;;-2.08;93.52;98999.33;108803;1268;22561;-84
2023/12/01 00:30:54;;;;;;;120.60;56.10;;;;;;;-2.05;93.36;99000.20;108834;1264;25461;-85
2023/12/01 00:34:07;;;;;;;127.00;60.20;;;;;;;-2.03;93.53;99001.89;108756;1268;22595;-84
2023/12/01 00:37:40;;;;;;;126.00;58.50;;;;;;;-2.00;93.60;98999.33;108582;1268;22542;-84
2023/12/01 00:40:54;;;;;;;129.70;57.90;;;;;;;-1.95;93.84;98989.77;108817;1268;22593;-85
2023/12/01 00:44:08;;;;;;;127.80;59.00;;;;;;;-1.95;93.78;98999.60;108750;1264;26364;-83
2023/12/01 00:47:23;;;;;;;131.50;60.50;;;;;;;-1.94;93.96;98986.06;108777;1268;25340;-84
2023/12/01 00:50:37;;;;;;;123.40;58.20;;;;;;;-1.95;94.00;98983.42;108768;1263;25465;-83
2023/12/01 00:53:33;;;;;;;133.60;63.80;;;;;;;-1.93;94.14;98976.19;108769;1263;22563;-84
2023/12/01 00:56:25;;;;;;;140.00;68.00;;;;;;;-1.91;94.11;98974.58;108744;1268;22648;-84
2023/12/01 01:00:00;;;;;;;138.30;63.40;;;;;;;-1.89;94.19;98977.27;108822;1267;22638;-85
2023/12/01 01:03:34;;;;;;;141.10;67.60;;;;;;;-1.88;94.20;98979.89;108746;1261;25530;-84
2023/12/01 01:06:47;;;;;;;137.60;63.40;;;;;;;-1.86;94.15;98983.35;108774;1264;22875;-84
2023/12/01 01:10:03;;;;;;;139.20;68.00;;;;;;;-1.87;94.02;98988.86;108689;1269;22621;-84
2023/12/01 01:13:18;;;;;;;143.20;64.00;;;;;;;-1.87;94.03;98988.09;108833;1267;25436;-84
2023/12/01 01:16:31;;;;;;;136.00;63.30;;;;;;;-1.83;94.39;98989.32;108847;1268;22621;-84
2023/12/01 01:20:05;;;;;;;130.30;61.70;;;;;;;-1.84;94.18;98991.13;108783;1268;22584;-85
2023/12/01 01:24:18;;;;;;;131.90;62.00;;;;;;;-1.80;94.59;98987.52;108732;1267;22574;-84
2023/12/01 01:27:50;;;;;;;133.20;59.20;;;;;;;-1.75;94.77;98987.17;108756;1264;22623;-84
2023/12/01 01:30:42;;;;;;;135.30;61.80;;;;;;;-1.75;94.50;98981.61;108765;1263;25382;-84
2023/12/01 01:33:36;;;;;;;129.70;59.20;;;;;;;-1.76;94.33;98977.73;108683;1263;24057;-85
2023/12/01 01:36:27;;;;;;;126.90;58.90;;;;;;;-1.82;94.11;98977.25;108905;1267;23353;-84
2023/12/01 01:39:39;;;;;;;125.90;60.50;;;;;;;-1.87;94.04;98982.45;108860;1267;22521;-84
2023/12/01 01:43:13;;;;;;;125.70;59.10;;;;;;;-1.85;94.22;98984.99;108878;1267;23272;-84
2023/12/01 01:46:25;;;;;;;124.70;59.00;;;;;;;-1.86;94.16;98994.99;108809;1267;25281;-85
2023/12/01 01:49:17;;;;;;;123.80;59.10;;;;;;;-1.86;94.01;98994.64;108415;1248;23001;-84
2023/12/01 01:52:55;;;;;;;124.40;59.40;;;;;;;-1.87;93.97;99004.03;108828;1268;23140;-85
2023/12/01 01:56:13;;;;;;;123.90;55.60;;;;;;;-1.86;93.87;99007.50;108842;1268;23151;-86
2023/12/01 01:59:26;;;;;;;119.70;55.30;;;;;;;-1.89;93.65;99013.30;108539;1268;26792;-85
2023/12/01 02:02:41;;;;;;;125.00;57.00;;;;;;;-1.95;93.78;99007.10;108793;1267;22525;-85
2023/12/01 02:06:33;;;;;;;114.40;54.60;;;;;;;-1.99;93.87;99006.64;108774;1267;22698;-85
2023/12/01 02:09:27;;;;;;;123.40;56.20;;;;;;;-1.98;93.91;99009.73;108760;1267;22862;-85
2023/12/01 02:12:19;;;;;;;118.10;55.50;;;;;;;-1.97;93.80;99011.67;108880;1267;22518;-85
2023/12/01 02:15:12;;;;;;;119.60;58.00;;;;;;;-1.95;94.00;99020.23;108818;1260;23996;-85
2023/12/01 02:19:07;;;;;;;115.60;55.10;;;;;;;-1.94;93.97;99030.83;108859;1268;22567;-87
2023/12/01 02:22:19;;;;;;;132.80;61.70;;;;;;;-1.91;94.22;99027.09;108708;1267;22516;-86
2023/12/01 02:25:33;;;;;;;156.10;69.30;;;;;;;-1.93;93.85;99018.70;108912;1260;25586;-86
2023/12/01 02:28:45;;;;;;;148.90;66.90;;;;;;;-1.99;93.63;99013.83;108832;1267;25272;-85
2023/12/01 02:32:40;;;;;;;158.50;69.60;;;;;;;-2.00;93.98;99008.54;108894;1260;22559;-83
2023/12/01 02:36:14;;;;;;;147.20;66.20;;;;;;;-2.05;93.71;99008.08;108815;1268;22557;-85
2023/12/01 02:39:47;;;;;;;132.30;58.70;;;;;;;-2.13;93.54;99005.95;108823;1263;24288;-85
2023/12/01 02:43:01;;;;;;;119.70;53.10;;;;;;;-2.19;93.71;98991.69;108845;1267;22590;-85
2023/12/01 02:46:13;;;;;;;110.40;49.60;;;;;;;-2.25;93.22;98987.38;108856;1268;23262;-85
2023/12/01 02:49:28;;;;;;;103.40;48.20;;;;;;;-2.35;93.26;98988.45;108831;1268;25457;-86
2023/12/01 02:53:00;;;;;;;109.70;50.30;;;;;;;-2.37;93.67;98979.83;108792;1267;22611;-85
2023/12/01 02:56:14;;;;;;;109.70;53.10;;;;;;;-2.42;93.72;98984.15;108800;1267;22582;-85
2023/12/01 02:59:06;;;;;;;124.50;55.30;;;;;;;-2.41;94.21;99006.20;108767;1267;25539;-87
2023/12/01 03:02:19;;;;;;;124.30;55.70;;;;;;;-2.38;94.27;99036.93;108806;1268;22561;-85
2023/12/01 03:05:32;;;;;;;124.70;56.00;;;;;;;-2.36;94.29;99051.98;108856;1268;24103;-85
2023/12/01 03:08:46;;;;;;;121.20;58.00;;;;;;;-2.32;94.54;99040.25;108755;1267;24371;-86
2023/12/01 03:12:20;;;;;;;127.00;55.70;;;;;;;-2.27;94.72;99031.77;108748;1269;25494;-85
2023/12/01 03:15:33;;;;;;;130.10;57.50;;;;;;;-2.22;94.82;99027.52;108785;1269;23437;-85
2023/12/01 03:18:26;;;;;;;121.80;55.10;;;;;;;-2.19;94.85;99009.52;108762;1267;22683;-85
2023/12/01 03:22:00;;;;;;;118.30;55.00;;;;;;;-2.18;94.77;98992.23;108799;1261;22697;-85
